KDKR

Houston County Airport

Crockett, Texas, USA
METAR KDKR 210650Z AUTO 00000KT 10SM CLR 19/19 A3003 RMK AO2
Observed Flight Rules
May-21 @ 06:50 UTC (30 minutes ago) Visual Flight Rules
Visibility Clouds
10 miles
  • Clear skies
Temperatures Readings
Current 19°C / 66°F
Dewpoint 19°C / 66°F
Humidity 100%
Altimeter 30.03" Hg
Pressure 1017 hPa
Elevation 106
METAR KDKR 210650Z AUTO 00000KT 10SM CLR 19/19 A3003 RMK AO2
Observed Flight Rules
May-21 @ 06:50 UTC
(30 minutes ago)
VFR
Clouds
  • Clear skies
Temperature Dewpoint
19°C / 66°F 19°C / 66°F
Humidity Altimeter Pressure
100% 30.03" Hg 1017 hPa